Time;durP1;ratioP1;P1;durP2;ratioP2;P2;SDS_P1;SDS_P2;PMS_P1;PMS_P2;Temp;Humidity;BMP_temperature;BMP_pressure;BME280_temperature;BME280_humidity;BME280_pressure;Samples;Min_cycle;Max_cycle;Signal;HPM_P1;HPM_P2
2022/01/21 00:01:10;;;;;;;17.80;11.63;;;2.70;99.90;;;;;;5018214;28;20497;-78
2022/01/21 00:03:36;;;;;;;17.27;12.05;;;2.70;99.90;;;;;;5017383;28;20033;-79
2022/01/21 00:06:06;;;;;;;16.83;12.88;;;2.70;99.90;;;;;;5018505;28;20481;-78
2022/01/21 00:08:36;;;;;;;20.08;12.95;;;2.70;99.90;;;;;;5017462;28;20026;-78
2022/01/21 00:11:02;;;;;;;20.40;12.87;;;2.70;99.90;;;;;;5016921;28;20041;-79
2022/01/21 00:13:34;;;;;;;16.48;11.77;;;2.70;99.90;;;;;;5005425;28;20367;-78
2022/01/21 00:16:02;;;;;;;16.00;11.45;;;2.70;99.90;;;;;;5006165;28;20030;-76
2022/01/21 00:18:28;;;;;;;16.65;11.77;;;2.60;99.90;;;;;;5000614;28;20025;-78
2022/01/21 00:32:11;;;;;;;14.73;8.45;;;2.60;99.90;;;;;;5002839;28;20125;-77
2022/01/21 00:34:36;;;;;;;16.08;12.00;;;2.60;99.90;;;;;;5010059;28;20050;-79
2022/01/21 00:37:03;;;;;;;16.15;11.10;;;2.60;99.90;;;;;;4998363;28;20118;-78
2022/01/21 00:39:31;;;;;;;13.02;10.07;;;2.60;99.90;;;;;;4999266;28;20026;-77
2022/01/21 00:42:44;;;;;;;19.55;11.90;;;2.60;99.90;;;;;;5004522;28;20124;-78
2022/01/21 00:44:59;;;;;;;15.73;11.40;;;2.60;99.90;;;;;;5017780;28;20454;-78
2022/01/21 00:47:26;;;;;;;23.70;11.70;;;2.60;99.90;;;;;;5016625;28;20058;-78
2022/01/21 00:49:52;;;;;;;12.45;10.88;;;2.60;99.90;;;;;;5012097;28;20096;-79
2022/01/21 00:52:18;;;;;;;23.00;11.43;;;2.60;99.90;;;;;;4998435;28;20030;-78
2022/01/21 00:54:44;;;;;;;15.55;10.65;;;2.60;99.90;;;;;;4997177;28;20129;-78
2022/01/21 00:57:10;;;;;;;14.25;10.60;;;2.60;99.90;;;;;;4998505;28;20105;-77
2022/01/21 00:59:36;;;;;;;11.35;9.82;;;2.50;99.90;;;;;;4998891;28;20026;-79
2022/01/21 01:02:03;;;;;;;20.13;11.18;;;2.50;99.90;;;;;;4997942;28;20041;-78
2022/01/21 01:04:29;;;;;;;17.40;11.02;;;2.50;99.90;;;;;;4999331;28;20486;-78
2022/01/21 01:06:55;;;;;;;19.08;12.48;;;2.50;99.90;;;;;;4998343;28;20053;-79
2022/01/21 01:09:21;;;;;;;17.10;10.73;;;2.40;99.90;;;;;;4997965;28;20567;-79
2022/01/21 01:12:09;;;;;;;13.18;8.68;;;2.40;99.90;;;;;;4998331;28;20034;-80
2022/01/21 01:20:07;;;;;;;19.92;10.20;;;2.30;99.90;;;;;;5001181;28;20030;-79
2022/01/21 01:22:52;;;;;;;21.00;11.15;;;2.30;99.90;;;;;;4997203;28;20030;-79
2022/01/21 01:28:03;;;;;;;17.33;10.63;;;2.20;99.90;;;;;;5003018;28;20122;-79
2022/01/21 01:30:31;;;;;;;16.35;10.55;;;2.30;99.90;;;;;;4996340;28;20026;-79
2022/01/21 01:32:59;;;;;;;14.27;10.57;;;2.20;99.90;;;;;;5009078;28;20472;-79
2022/01/21 01:35:29;;;;;;;16.17;10.93;;;2.20;99.90;;;;;;5032864;28;20062;-78
2022/01/21 01:38:33;;;;;;;20.42;11.55;;;2.20;99.90;;;;;;5003216;28;20026;-78
2022/01/21 01:40:49;;;;;;;15.35;11.65;;;2.20;99.90;;;;;;5007818;28;20030;-79
2022/01/21 01:51:17;;;;;;;17.05;10.23;;;2.10;99.90;;;;;;5021048;28;20057;-78
2022/01/21 01:53:52;;;;;;;14.25;11.63;;;2.10;99.90;;;;;;5019353;28;20036;-79
2022/01/21 01:56:23;;;;;;;19.60;11.40;;;2.10;99.90;;;;;;5015253;28;20049;-79
2022/01/21 01:58:49;;;;;;;17.33;11.88;;;2.00;99.90;;;;;;5001046;28;20027;-79
2022/01/21 02:01:15;;;;;;;24.30;12.68;;;2.00;99.90;;;;;;5000935;28;20500;-79
2022/01/21 02:03:41;;;;;;;20.77;12.48;;;1.90;99.90;;;;;;4999931;28;20030;-78
2022/01/21 02:06:07;;;;;;;21.95;13.27;;;1.80;99.90;;;;;;4999852;28;20029;-79
2022/01/21 02:08:33;;;;;;;17.33;13.93;;;1.80;99.90;;;;;;5001104;28;20025;-78
2022/01/21 02:10:59;;;;;;;15.48;12.30;;;1.80;99.90;;;;;;5000181;28;20031;-79
2022/01/21 02:13:29;;;;;;;20.60;12.50;;;1.80;99.90;;;;;;5001183;28;20027;-80
2022/01/21 02:16:38;;;;;;;21.63;13.05;;;1.70;99.90;;;;;;5000808;28;20018;-79
2022/01/21 02:21:47;;;;;;;17.92;13.38;;;1.60;99.90;;;;;;5001972;28;20033;-80
2022/01/21 02:24:22;;;;;;;19.40;12.18;;;1.60;99.90;;;;;;5000693;28;20030;-80
2022/01/21 02:26:51;;;;;;;20.65;13.57;;;1.60;99.90;;;;;;5005755;28;20065;-79
2022/01/21 02:29:27;;;;;;;18.67;13.30;;;1.60;99.90;;;;;;5020906;28;20478;-79
2022/01/21 02:31:55;;;;;;;22.50;14.18;;;1.50;99.90;;;;;;5019644;28;20060;-79
2022/01/21 02:34:21;;;;;;;24.25;13.57;;;1.50;99.90;;;;;;5019888;28;20037;-79
2022/01/21 02:36:47;;;;;;;19.85;12.80;;;1.50;99.90;;;;;;5001657;28;20053;-79
2022/01/21 02:39:13;;;;;;;21.20;12.73;;;1.50;99.90;;;;;;4999218;28;20054;-79
2022/01/21 02:41:38;;;;;;;22.85;12.60;;;1.60;99.90;;;;;;5018896;28;20018;-79
2022/01/21 02:44:04;;;;;;;16.90;11.73;;;1.60;99.90;;;;;;5008668;28;20502;-79
2022/01/21 02:46:36;;;;;;;16.95;10.65;;;1.60;99.90;;;;;;4998804;28;20030;-79
2022/01/21 02:49:02;;;;;;;19.83;12.93;;;1.60;99.90;;;;;;4998978;28;20035;-79
2022/01/21 02:51:28;;;;;;;13.70;9.52;;;1.60;99.90;;;;;;4998848;28;20026;-79
2022/01/21 02:56:20;;;;;;;16.15;11.77;;;1.60;99.90;;;;;;4999747;28;20026;-79
2022/01/21 02:58:47;;;;;;;23.27;13.27;;;1.60;99.90;;;;;;4999087;28;20395;-79
2022/01/21 03:01:14;;;;;;;22.88;13.93;;;1.50;99.90;;;;;;5011809;28;20137;-80
2022/01/21 03:03:42;;;;;;;22.83;13.45;;;1.50;99.90;;;;;;5000089;28;20030;-80
2022/01/21 03:06:08;;;;;;;22.60;14.10;;;1.40;99.90;;;;;;4999874;28;20022;-80
2022/01/21 03:08:34;;;;;;;25.75;15.48;;;1.40;99.90;;;;;;4999996;28;20478;-79
2022/01/21 03:11:00;;;;;;;17.58;13.00;;;1.30;99.90;;;;;;4999581;28;20022;-79
2022/01/21 03:13:26;;;;;;;21.80;15.00;;;1.20;99.90;;;;;;4998510;28;20088;-78
2022/01/21 03:15:53;;;;;;;23.30;15.60;;;1.20;99.90;;;;;;4999605;28;20031;-79
2022/01/21 03:18:19;;;;;;;23.88;13.48;;;1.30;99.90;;;;;;4998615;28;20042;-80
2022/01/21 03:20:46;;;;;;;21.23;13.65;;;1.30;99.90;;;;;;4999550;28;20029;-80
2022/01/21 03:23:20;;;;;;;26.00;12.98;;;1.20;99.90;;;;;;4999839;28;20030;-79
2022/01/21 03:25:47;;;;;;;25.33;12.60;;;1.20;99.90;;;;;;5005316;28;20064;-79
2022/01/21 03:28:14;;;;;;;22.10;13.52;;;1.20;99.90;;;;;;5017998;28;20885;-80
2022/01/21 03:30:40;;;;;;;23.20;13.80;;;1.10;99.90;;;;;;5017646;28;20083;-80
2022/01/21 03:33:07;;;;;;;26.30;13.50;;;1.20;99.90;;;;;;5018703;28;20124;-80
2022/01/21 03:35:33;;;;;;;24.45;14.57;;;1.20;99.90;;;;;;5009633;28;20026;-80
2022/01/21 03:37:59;;;;;;;32.58;13.02;;;1.20;99.90;;;;;;4998310;28;20108;-80
2022/01/21 03:40:25;;;;;;;20.08;12.38;;;1.20;99.90;;;;;;5008820;28;20018;-79
2022/01/21 03:42:51;;;;;;;24.05;13.25;;;1.20;99.90;;;;;;5017403;28;20080;-81
2022/01/21 03:45:17;;;;;;;21.85;13.75;;;1.20;99.90;;;;;;5000946;28;20030;-80
2022/01/21 03:47:44;;;;;;;21.25;13.60;;;1.20;99.90;;;;;;5000417;28;20042;-79
2022/01/21 03:52:56;;;;;;;22.73;12.35;;;1.30;99.90;;;;;;4999291;28;20053;-79
2022/01/21 03:55:22;;;;;;;23.65;14.27;;;1.30;99.90;;;;;;4999144;28;20019;-79
2022/01/21 03:57:48;;;;;;;19.33;11.75;;;1.30;99.90;;;;;;4997515;28;20030;-79
2022/01/21 04:00:20;;;;;;;16.80;12.55;;;1.30;99.90;;;;;;4999062;28;20162;-79
2022/01/21 04:02:46;;;;;;;21.40;11.43;;;1.30;99.90;;;;;;4997341;28;20030;-79
2022/01/21 04:05:12;;;;;;;16.63;11.25;;;1.30;99.90;;;;;;4998788;28;20033;-78
2022/01/21 04:07:38;;;;;;;16.75;10.93;;;1.40;99.90;;;;;;4997273;28;20487;-78
2022/01/21 04:10:05;;;;;;;23.70;12.15;;;1.40;99.90;;;;;;4999296;28;20056;-78
2022/01/21 04:12:32;;;;;;;16.55;12.23;;;1.50;99.90;;;;;;5007787;28;20061;-78
2022/01/21 04:14:59;;;;;;;20.70;13.52;;;1.50;99.90;;;;;;5010866;28;20029;-79
2022/01/21 04:17:28;;;;;;;18.90;11.85;;;1.60;99.90;;;;;;5010852;28;20469;-79
2022/01/21 04:19:54;;;;;;;25.17;11.75;;;1.60;99.90;;;;;;4997457;28;20046;-80
2022/01/21 04:22:20;;;;;;;16.23;11.30;;;1.70;99.90;;;;;;4998312;28;20030;-79
2022/01/21 04:24:48;;;;;;;13.77;10.63;;;1.70;99.90;;;;;;4998479;28;20477;-79
2022/01/21 04:27:14;;;;;;;17.15;10.10;;;1.70;99.90;;;;;;4998613;28;20030;-78
2022/01/21 04:29:40;;;;;;;20.42;11.13;;;1.70;99.90;;;;;;4997268;28;20021;-78
2022/01/21 04:32:07;;;;;;;16.48;10.40;;;1.80;99.90;;;;;;4998152;28;20050;-79
2022/01/21 04:34:33;;;;;;;14.15;10.43;;;1.80;99.90;;;;;;5010607;28;20049;-78
2022/01/21 04:37:00;;;;;;;12.82;10.13;;;1.90;99.90;;;;;;4997568;28;20032;-79
2022/01/21 04:39:31;;;;;;;15.13;10.45;;;1.90;99.90;;;;;;4998547;28;20027;-78
2022/01/21 04:47:27;;;;;;;16.48;9.80;;;2.00;99.90;;;;;;4998005;28;20092;-79
2022/01/21 04:49:53;;;;;;;13.60;9.32;;;2.00;99.90;;;;;;4996878;28;20474;-79
2022/01/21 04:52:19;;;;;;;14.95;9.57;;;2.00;99.90;;;;;;4997175;28;20030;-79
2022/01/21 04:54:45;;;;;;;11.98;7.88;;;2.00;99.90;;;;;;4998125;28;20050;-78
2022/01/21 04:57:11;;;;;;;16.75;10.02;;;2.00;99.90;;;;;;4996686;28;20033;-79
2022/01/21 04:59:40;;;;;;;23.25;9.85;;;2.00;99.90;;;;;;4997997;28;20034;-79
2022/01/21 05:02:06;;;;;;;14.07;9.73;;;2.00;99.90;;;;;;4996583;28;20026;-78
2022/01/21 05:04:32;;;;;;;10.02;7.63;;;1.90;99.90;;;;;;4998977;28;20035;-79
2022/01/21 05:06:58;;;;;;;15.75;9.32;;;1.90;99.90;;;;;;4998078;28;20025;-79
2022/01/21 05:09:31;;;;;;;17.65;9.90;;;1.90;99.90;;;;;;5004820;28;20473;-79
2022/01/21 05:11:58;;;;;;;16.15;8.98;;;1.90;99.90;;;;;;5018213;28;20033;-80
2022/01/21 05:15:14;;;;;;;19.17;9.05;;;1.90;99.90;;;;;;5017759;28;20033;-79
2022/01/21 05:17:14;;;;;;;17.15;10.07;;;1.90;99.90;;;;;;5014810;28;20083;-82
2022/01/21 05:19:41;;;;;;;14.05;8.65;;;1.90;99.90;;;;;;5016355;28;20403;-81
2022/01/21 05:22:07;;;;;;;20.17;8.90;;;1.90;99.90;;;;;;5019646;28;20132;-82
2022/01/21 05:24:33;;;;;;;12.73;9.45;;;1.80;99.90;;;;;;5020679;28;20029;-81
2022/01/21 05:27:01;;;;;;;16.80;9.70;;;1.80;99.90;;;;;;5021828;28;20037;-81
2022/01/21 05:29:32;;;;;;;30.73;12.35;;;1.80;99.90;;;;;;5021810;28;20065;-81
2022/01/21 05:31:59;;;;;;;19.23;9.73;;;1.80;99.90;;;;;;5018446;28;20583;-81
2022/01/21 05:34:25;;;;;;;17.52;8.68;;;1.80;99.90;;;;;;5021205;28;20045;-80
2022/01/21 05:36:51;;;;;;;14.57;7.90;;;1.80;99.90;;;;;;5002390;28;20386;-80
2022/01/21 05:39:19;;;;;;;13.50;9.15;;;1.80;99.90;;;;;;5000182;28;20031;-80
2022/01/21 05:41:49;;;;;;;16.55;8.98;;;1.80;99.90;;;;;;5019645;28;20033;-80
2022/01/21 05:46:22;;;;;;;13.57;9.00;;;1.80;99.90;;;;;;5020411;28;20040;-81
2022/01/21 05:47:04;;;;;;;14.10;9.35;;;1.80;99.90;;;;;;5001192;28;20061;-81
2022/01/21 05:49:33;;;;;;;18.65;9.55;;;1.80;99.90;;;;;;5000051;28;20034;-81
2022/01/21 05:52:05;;;;;;;16.00;10.30;;;1.80;99.90;;;;;;5011828;28;20509;-81
2022/01/21 05:54:31;;;;;;;17.02;9.55;;;1.80;99.90;;;;;;5016352;28;20109;-81
2022/01/21 05:56:58;;;;;;;16.70;9.75;;;1.80;99.90;;;;;;5001321;28;20018;-81
2022/01/21 05:59:24;;;;;;;17.45;10.63;;;1.80;99.90;;;;;;5001570;28;20146;-82
2022/01/21 06:01:50;;;;;;;14.10;9.88;;;1.80;99.90;;;;;;5011784;28;20080;-82
2022/01/21 06:04:17;;;;;;;15.55;10.15;;;1.70;99.90;;;;;;5020056;28;20032;-81
2022/01/21 06:06:43;;;;;;;22.13;11.57;;;1.70;99.90;;;;;;5019733;28;20033;-81
2022/01/21 06:09:09;;;;;;;19.73;10.75;;;1.70;99.90;;;;;;5019408;28;20026;-82
2022/01/21 06:11:35;;;;;;;16.30;9.65;;;1.60;99.90;;;;;;5019808;28;20030;-81
2022/01/21 06:14:02;;;;;;;18.02;9.55;;;1.50;99.90;;;;;;5020394;28;20452;-81
2022/01/21 06:16:28;;;;;;;20.63;10.90;;;1.50;99.90;;;;;;5009752;28;20029;-81
2022/01/21 06:18:55;;;;;;;17.42;10.65;;;1.50;99.90;;;;;;4999279;28;20028;-80
2022/01/21 06:21:21;;;;;;;17.13;10.60;;;1.40;99.90;;;;;;5000261;28;20030;-80
2022/01/21 06:23:47;;;;;;;12.73;10.23;;;1.40;99.90;;;;;;5000863;28;20030;-80
2022/01/21 06:26:13;;;;;;;24.67;11.85;;;1.40;99.90;;;;;;5014215;28;20029;-80
2022/01/21 06:28:40;;;;;;;17.27;10.70;;;1.30;99.90;;;;;;5037143;28;20478;-80
2022/01/21 06:31:06;;;;;;;24.05;11.10;;;1.30;99.90;;;;;;5023945;28;20026;-81
2022/01/21 06:33:32;;;;;;;23.67;11.68;;;1.20;99.90;;;;;;5017802;28;20046;-81
2022/01/21 06:35:58;;;;;;;20.35;10.27;;;1.20;99.90;;;;;;5035425;28;20080;-81
2022/01/21 06:38:24;;;;;;;19.50;10.50;;;1.10;99.90;;;;;;5035427;28;20026;-81
2022/01/21 06:40:51;;;;;;;21.38;11.85;;;1.10;99.90;;;;;;5020279;28;20029;-81
2022/01/21 06:43:17;;;;;;;16.35;10.88;;;1.10;99.90;;;;;;5015441;28;20520;-80
2022/01/21 06:45:48;;;;;;;17.77;9.90;;;1.10;99.90;;;;;;5014572;28;20034;-81
2022/01/21 06:48:14;;;;;;;20.02;10.65;;;1.00;99.90;;;;;;5002255;28;20034;-82
2022/01/21 06:50:42;;;;;;;18.45;10.70;;;1.00;99.90;;;;;;5002562;28;20031;-80
2022/01/21 06:53:08;;;;;;;16.30;10.93;;;1.00;99.90;;;;;;5009327;28;20036;-81
2022/01/21 06:55:35;;;;;;;21.77;10.73;;;1.00;99.90;;;;;;5022162;28;20045;-81
2022/01/21 06:58:01;;;;;;;18.45;10.38;;;1.00;99.90;;;;;;5020807;28;20121;-80
2022/01/21 07:00:26;;;;;;;21.15;10.27;;;0.90;99.90;;;;;;5021948;28;20048;-80
2022/01/21 07:02:53;;;;;;;19.40;11.10;;;0.90;99.90;;;;;;5021265;28;20038;-81
2022/01/21 07:05:22;;;;;;;24.20;12.50;;;0.90;99.90;;;;;;5021679;28;20513;-80
2022/01/21 07:07:49;;;;;;;20.92;11.45;;;0.90;99.90;;;;;;5022104;28;20161;-81
2022/01/21 07:10:16;;;;;;;12.38;8.50;;;0.90;99.90;;;;;;5021932;28;20057;-80
2022/01/21 07:12:44;;;;;;;13.05;10.18;;;0.90;99.90;;;;;;5021526;28;20030;-81
2022/01/21 07:15:11;;;;;;;18.38;9.45;;;0.90;99.90;;;;;;5021188;28;20025;-81
2022/01/21 07:17:37;;;;;;;14.43;10.50;;;0.90;99.90;;;;;;5021734;28;20425;-81
2022/01/21 07:20:05;;;;;;;24.08;11.57;;;0.80;99.90;;;;;;5012368;28;20084;-80
2022/01/21 07:22:31;;;;;;;18.30;11.10;;;0.80;99.90;;;;;;5014648;28;20029;-81
2022/01/21 07:24:57;;;;;;;20.27;10.88;;;0.80;99.90;;;;;;5019153;28;20057;-78
2022/01/21 07:27:24;;;;;;;17.52;11.50;;;0.80;99.90;;;;;;5013672;28;20053;-79
2022/01/21 07:29:50;;;;;;;12.48;10.63;;;0.70;99.90;;;;;;5006240;28;20027;-79
2022/01/21 07:32:16;;;;;;;20.95;11.63;;;0.70;99.90;;;;;;5024054;28;20041;-81
2022/01/21 07:34:42;;;;;;;20.42;11.32;;;0.70;99.90;;;;;;5010243;28;20034;-81
2022/01/21 07:37:08;;;;;;;22.75;12.85;;;0.60;99.90;;;;;;5013420;28;20026;-81
2022/01/21 07:39:33;;;;;;;24.10;12.27;;;0.60;99.90;;;;;;5008222;28;20034;-80
2022/01/21 07:41:59;;;;;;;20.13;12.65;;;0.60;99.90;;;;;;5003341;28;20026;-80
2022/01/21 07:44:25;;;;;;;23.48;14.23;;;0.60;99.90;;;;;;5012604;28;20034;-80
2022/01/21 07:46:51;;;;;;;18.80;12.60;;;0.60;99.90;;;;;;5013746;28;20449;-80
2022/01/21 07:49:17;;;;;;;25.35;12.73;;;0.60;99.90;;;;;;5014404;28;20029;-81
2022/01/21 07:51:44;;;;;;;17.50;11.60;;;0.60;99.90;;;;;;5006341;28;20037;-80
2022/01/21 07:54:11;;;;;;;21.90;11.68;;;0.60;99.90;;;;;;5020088;28;20038;-80
2022/01/21 07:56:37;;;;;;;17.25;11.90;;;0.60;99.90;;;;;;5007770;28;20025;-81
2022/01/21 07:59:07;;;;;;;22.92;16.98;;;0.70;99.90;;;;;;5011104;28;20092;-79
2022/01/21 08:01:33;;;;;;;14.70;11.57;;;0.70;99.90;;;;;;5012876;28;20033;-79
2022/01/21 08:03:59;;;;;;;15.90;11.13;;;0.80;99.90;;;;;;5007884;28;20494;-80
2022/01/21 08:06:25;;;;;;;21.90;12.20;;;0.90;99.90;;;;;;5010644;28;20034;-80
2022/01/21 08:08:53;;;;;;;17.38;11.02;;;0.90;99.90;;;;;;5011714;28;20026;-79
2022/01/21 08:11:19;;;;;;;12.63;10.38;;;1.00;99.90;;;;;;5009369;28;20019;-80
2022/01/21 08:13:45;;;;;;;19.20;10.45;;;1.00;99.90;;;;;;5003341;28;20512;-80
2022/01/21 08:16:10;;;;;;;15.90;10.20;;;1.10;99.90;;;;;;5013767;28;20029;-81
2022/01/21 08:18:36;;;;;;;17.20;10.63;;;1.10;99.90;;;;;;5005376;28;20056;-81
2022/01/21 08:21:03;;;;;;;50.50;23.92;;;1.10;99.90;;;;;;5009735;28;20022;-80
2022/01/21 08:23:29;;;;;;;15.73;10.15;;;1.20;99.90;;;;;;5019752;28;20034;-79
2022/01/21 08:25:55;;;;;;;16.58;9.70;;;1.30;99.90;;;;;;5009637;28;20580;-81
2022/01/21 08:28:21;;;;;;;22.10;11.20;;;1.30;99.90;;;;;;5007259;28;20041;-80
2022/01/21 08:30:47;;;;;;;16.50;10.77;;;1.30;99.90;;;;;;5010460;28;20034;-80
2022/01/21 08:33:13;;;;;;;13.90;9.68;;;1.30;99.90;;;;;;5003385;28;20096;-82
2022/01/21 08:35:39;;;;;;;22.30;10.52;;;1.40;99.90;;;;;;5015475;28;20056;-80
2022/01/21 08:38:06;;;;;;;26.55;15.60;;;1.40;99.90;;;;;;5010147;28;20061;-80
2022/01/21 08:40:32;;;;;;;19.80;9.90;;;1.40;99.90;;;;;;5012965;28;20026;-80
2022/01/21 08:42:58;;;;;;;12.25;8.93;;;1.50;99.90;;;;;;4997976;28;20031;-79
2022/01/21 08:45:25;;;;;;;16.70;8.98;;;1.40;99.90;;;;;;4997915;28;20457;-78
2022/01/21 08:47:51;;;;;;;38.38;10.98;;;1.50;99.90;;;;;;4996551;28;20121;-78
2022/01/21 08:50:18;;;;;;;15.65;9.88;;;1.50;99.90;;;;;;4996787;28;20029;-78
2022/01/21 08:52:46;;;;;;;17.08;8.73;;;1.40;99.90;;;;;;4996550;28;20046;-79
2022/01/21 08:55:15;;;;;;;17.50;12.30;;;1.40;99.90;;;;;;4996437;28;20026;-81
2022/01/21 08:57:43;;;;;;;20.95;9.95;;;1.40;99.90;;;;;;4997969;28;20051;-79
2022/01/21 09:00:17;;;;;;;18.55;8.80;;;1.40;99.90;;;;;;4997821;28;20029;-81
2022/01/21 09:02:43;;;;;;;21.33;9.98;;;1.50;99.90;;;;;;4998533;28;20034;-81
2022/01/21 09:05:09;;;;;;;15.27;10.10;;;1.50;99.90;;;;;;4998451;28;20478;-82
2022/01/21 09:07:35;;;;;;;16.35;10.15;;;1.60;99.90;;;;;;4997986;28;20030;-80
2022/01/21 09:10:02;;;;;;;16.40;10.18;;;1.70;99.90;;;;;;4996628;28;20022;-80
2022/01/21 09:12:28;;;;;;;14.88;9.55;;;1.80;99.90;;;;;;4996555;28;20022;-80
2022/01/21 09:14:54;;;;;;;21.58;11.02;;;1.90;99.90;;;;;;4997657;28;20031;-81
2022/01/21 09:17:20;;;;;;;17.50;9.70;;;1.80;99.90;;;;;;5004851;28;20029;-80
2022/01/21 09:19:46;;;;;;;23.45;11.40;;;1.90;99.90;;;;;;5009261;28;20026;-79
2022/01/21 09:22:12;;;;;;;14.90;9.90;;;1.90;99.90;;;;;;5033013;28;20049;-80
2022/01/21 09:24:38;;;;;;;21.42;10.27;;;1.90;99.90;;;;;;5017837;28;20022;-80
2022/01/21 09:27:05;;;;;;;14.57;10.15;;;1.90;99.90;;;;;;5033093;28;20030;-81
2022/01/21 09:29:32;;;;;;;14.35;8.90;;;1.90;99.90;;;;;;5004934;28;20494;-80
2022/01/21 09:31:58;;;;;;;23.90;9.98;;;1.90;99.90;;;;;;4997358;28;20109;-80
2022/01/21 09:34:26;;;;;;;18.70;9.32;;;2.00;99.90;;;;;;5009522;28;20030;-78
2022/01/21 09:36:54;;;;;;;20.50;8.85;;;2.10;99.90;;;;;;5022064;28;20483;-78
2022/01/21 09:39:20;;;;;;;14.18;9.25;;;2.30;99.90;;;;;;5009321;28;20025;-78
2022/01/21 09:41:48;;;;;;;14.13;8.27;;;2.40;99.90;;;;;;5016088;28;20033;-78
2022/01/21 09:44:16;;;;;;;14.10;9.00;;;2.50;99.90;;;;;;5006865;28;20105;-78
2022/01/21 09:46:49;;;;;;;14.30;8.15;;;2.60;99.90;;;;;;5010212;28;20033;-78
2022/01/21 09:49:27;;;;;;;12.70;7.85;;;2.70;99.90;;;;;;5016030;28;20498;-76
2022/01/21 09:51:55;;;;;;;11.98;8.43;;;2.80;99.90;;;;;;5003783;28;20023;-78
2022/01/21 09:54:23;;;;;;;12.82;8.25;;;2.90;99.90;;;;;;5005537;28;20041;-77
2022/01/21 09:56:51;;;;;;;14.57;7.72;;;3.00;99.90;;;;;;4999339;28;20031;-78
2022/01/21 09:59:19;;;;;;;10.32;7.38;;;2.90;99.90;;;;;;5003950;28;20030;-78
2022/01/21 10:01:57;;;;;;;11.50;8.93;;;2.80;99.90;;;;;;5015337;28;20030;-77
2022/01/21 10:04:28;;;;;;;10.27;7.57;;;2.70;99.90;;;;;;5015493;28;20026;-77
2022/01/21 10:06:55;;;;;;;12.35;7.70;;;2.70;99.90;;;;;;5018445;28;20033;-78
2022/01/21 10:09:22;;;;;;;13.93;7.22;;;2.80;99.90;;;;;;5021054;28;20026;-78
2022/01/21 10:11:52;;;;;;;14.05;7.65;;;2.80;99.90;;;;;;5003545;28;20073;-77
2022/01/21 10:14:29;;;;;;;20.10;7.68;;;2.90;99.90;;;;;;5001064;28;20117;-79
2022/01/21 10:16:58;;;;;;;10.30;6.78;;;3.00;99.90;;;;;;5011891;28;20026;-78
2022/01/21 10:19:33;;;;;;;18.13;7.13;;;3.00;99.90;;;;;;5012344;28;20021;-79
2022/01/21 10:22:06;;;;;;;20.90;9.05;;;3.00;99.90;;;;;;5006418;28;20118;-78
2022/01/21 10:24:35;;;;;;;17.73;7.35;;;3.10;99.90;;;;;;5010608;28;20021;-79
2022/01/21 10:27:02;;;;;;;17.00;6.22;;;3.10;99.90;;;;;;5009866;28;20037;-79
2022/01/21 10:29:40;;;;;;;15.07;6.35;;;3.20;99.90;;;;;;5018749;28;20065;-79
2022/01/21 10:32:07;;;;;;;11.68;6.60;;;3.20;99.90;;;;;;5019848;28;20049;-79
2022/01/21 10:34:39;;;;;;;12.07;6.55;;;3.20;99.90;;;;;;4991913;28;20090;-77
2022/01/21 10:37:24;;;;;;;13.30;6.75;;;3.30;99.90;;;;;;4993211;28;20021;-79
2022/01/21 10:40:04;;;;;;;14.95;7.20;;;3.40;99.90;;;;;;5005075;28;20029;-78
2022/01/21 10:42:30;;;;;;;12.63;7.15;;;3.40;99.90;;;;;;5012046;28;20022;-77
2022/01/21 10:44:57;;;;;;;10.77;6.65;;;3.40;99.90;;;;;;5014024;28;20041;-76
2022/01/21 10:47:35;;;;;;;15.60;8.13;;;3.50;99.90;;;;;;4999999;28;20022;-78
2022/01/21 10:50:13;;;;;;;11.35;7.47;;;3.50;99.90;;;;;;5000152;28;20026;-77
2022/01/21 10:52:50;;;;;;;12.60;6.35;;;3.60;99.90;;;;;;4999765;28;20042;-76
2022/01/21 10:55:34;;;;;;;15.32;8.63;;;3.60;99.90;;;;;;5008284;28;20061;-77
2022/01/21 10:58:09;;;;;;;10.85;6.97;;;3.60;99.90;;;;;;5019155;28;20029;-77
2022/01/21 11:00:36;;;;;;;10.43;6.25;;;3.60;99.90;;;;;;5019393;28;20377;-77
2022/01/21 11:03:13;;;;;;;9.02;6.28;;;3.70;99.90;;;;;;5019588;28;20026;-77
2022/01/21 11:05:44;;;;;;;13.00;6.55;;;3.70;99.90;;;;;;5019256;28;20032;-77
2022/01/21 11:08:11;;;;;;;;;;;3.70;99.90;;;;;;4989809;28;20041;-77
2022/01/21 11:10:50;;;;;;;12.80;6.70;;;3.80;99.90;;;;;;4995907;28;19913;-77
2022/01/21 11:13:18;;;;;;;21.02;8.80;;;3.80;99.90;;;;;;4999689;28;20026;-77
2022/01/21 11:16:06;;;;;;;11.60;6.35;;;3.90;99.90;;;;;;4989276;28;20405;-77
2022/01/21 11:18:33;;;;;;;11.30;6.47;;;3.90;99.90;;;;;;5019278;28;20014;-78
2022/01/21 11:21:09;;;;;;;8.02;6.43;;;3.90;99.90;;;;;;5017723;28;20034;-78
2022/01/21 11:23:37;;;;;;;11.38;6.43;;;3.90;99.90;;;;;;4993042;28;20557;-78
2022/01/21 11:26:23;;;;;;;15.90;6.40;;;4.00;99.90;;;;;;4999408;28;20030;-78
2022/01/21 11:29:11;;;;;;;12.35;6.93;;;4.00;99.90;;;;;;4996290;28;20395;-79
2022/01/21 11:36:29;;;;;;;16.58;8.30;;;4.10;99.90;;;;;;4995053;28;20045;-78
2022/01/21 11:39:02;;;;;;;12.40;7.20;;;4.10;99.90;;;;;;4985579;28;20069;-78
2022/01/21 11:41:29;;;;;;;12.25;6.43;;;4.30;99.90;;;;;;4992138;28;20030;-78
2022/01/21 11:44:00;;;;;;;10.10;6.53;;;4.40;99.90;;;;;;4986714;28;20038;-77
2022/01/21 11:48:57;;;;;;;11.00;6.78;;;4.50;99.90;;;;;;4984161;28;20043;-77
2022/01/21 11:51:36;;;;;;;15.13;7.00;;;4.60;99.90;;;;;;4992427;28;20026;-77
2022/01/21 11:54:08;;;;;;;15.02;6.93;;;4.70;99.90;;;;;;4992314;28;20057;-77
2022/01/21 11:56:54;;;;;;;12.13;6.65;;;4.50;99.90;;;;;;4992848;28;20126;-77
2022/01/21 11:59:57;;;;;;;14.00;6.97;;;4.40;99.90;;;;;;4990019;28;20398;-77
2022/01/21 12:02:32;;;;;;;10.75;7.00;;;4.40;99.90;;;;;;4992341;28;20114;-78
2022/01/21 12:05:08;;;;;;;11.35;6.45;;;4.40;99.90;;;;;;4995648;28;20109;-77
2022/01/21 12:07:40;;;;;;;11.90;7.50;;;4.50;99.90;;;;;;4991091;28;20058;-77
2022/01/21 12:10:10;;;;;;;8.60;6.20;;;4.60;99.90;;;;;;4995525;28;20034;-77
2022/01/21 12:12:48;;;;;;;14.57;7.13;;;4.70;99.90;;;;;;4995597;28;20042;-77
2022/01/21 12:23:50;;;;;;;13.93;7.07;;;4.70;99.90;;;;;;4987288;28;20034;-79
2022/01/21 12:26:18;;;;;;;13.95;7.47;;;4.80;99.90;;;;;;4998528;28;20493;-78
2022/01/21 12:29:04;;;;;;;15.55;5.85;;;4.80;99.90;;;;;;5005500;28;20128;-77
2022/01/21 12:31:40;;;;;;;9.88;5.72;;;4.80;99.90;;;;;;4997211;28;20100;-79
2022/01/21 12:36:51;;;;;;;13.07;6.15;;;4.80;99.90;;;;;;5002050;28;20146;-77
2022/01/21 12:39:36;;;;;;;8.70;5.72;;;4.70;99.90;;;;;;4996081;28;20125;-77
2022/01/21 12:42:27;;;;;;;11.82;5.35;;;4.60;99.90;;;;;;4995365;28;20026;-78
2022/01/21 12:45:08;;;;;;;11.82;5.95;;;4.50;99.90;;;;;;4984173;28;20475;-77
2022/01/21 14:27:31;;;;;;;17.45;6.85;;;5.30;99.90;;;;;;4961803;28;20085;-84
2022/01/21 14:30:04;;;;;;;14.48;7.22;;;5.10;99.90;;;;;;4999988;28;20037;-84
2022/01/21 14:32:38;;;;;;;10.73;5.97;;;4.90;99.90;;;;;;5013939;28;20092;-82
2022/01/21 14:35:10;;;;;;;10.23;6.43;;;4.90;99.90;;;;;;5002897;28;20022;-84
2022/01/21 14:37:50;;;;;;;10.23;5.68;;;4.80;99.90;;;;;;5017725;28;20412;-82
2022/01/21 14:40:22;;;;;;;6.50;5.43;;;4.80;99.90;;;;;;5003542;28;20129;-83
2022/01/21 14:42:47;;;;;;;12.93;6.32;;;4.70;99.90;;;;;;5020351;28;20085;-82
2022/01/21 14:45:19;;;;;;;6.75;5.40;;;4.70;99.90;;;;;;5005138;28;20050;-83
2022/01/21 14:47:46;;;;;;;10.20;5.82;;;4.60;99.90;;;;;;4982972;28;20117;-84
2022/01/21 14:50:26;;;;;;;10.32;5.57;;;4.70;99.90;;;;;;4982768;28;20023;-84
2022/01/21 14:52:56;;;;;;;12.68;5.75;;;4.70;99.90;;;;;;5000338;28;20036;-82
2022/01/21 14:55:35;;;;;;;6.47;5.77;;;4.70;99.90;;;;;;5001342;28;20034;-83
2022/01/21 14:58:22;;;;;;;15.75;8.25;;;4.60;99.90;;;;;;5000502;28;20053;-81
2022/01/21 15:00:51;;;;;;;14.75;7.05;;;4.60;99.90;;;;;;4989276;28;20074;-82
2022/01/21 15:03:24;;;;;;;10.35;6.10;;;4.60;99.90;;;;;;5013566;28;20048;-79
2022/01/21 15:05:53;;;;;;;11.88;6.60;;;4.60;99.90;;;;;;5010632;28;20029;-82
2022/01/21 15:08:53;;;;;;;9.35;6.43;;;4.60;99.90;;;;;;5019327;28;20030;-82
2022/01/21 15:14:34;;;;;;;10.63;6.35;;;4.70;99.90;;;;;;5010127;28;20023;-82
2022/01/21 15:17:06;;;;;;;7.72;5.53;;;4.70;99.90;;;;;;4988487;28;20045;-81
2022/01/21 15:19:38;;;;;;;9.00;6.35;;;4.70;99.90;;;;;;5000075;28;20078;-83
2022/01/21 15:22:09;;;;;;;12.18;7.45;;;4.60;99.90;;;;;;5005382;28;20446;-83
2022/01/21 15:24:36;;;;;;;8.00;5.88;;;4.50;99.90;;;;;;4982112;28;20049;-83
2022/01/21 15:27:02;;;;;;;9.15;5.97;;;4.40;99.90;;;;;;4999151;28;20081;-83
2022/01/21 15:29:29;;;;;;;8.48;6.60;;;4.40;99.90;;;;;;4981857;28;20383;-82
2022/01/21 15:31:56;;;;;;;10.85;6.43;;;4.40;99.90;;;;;;4999216;28;20030;-83
2022/01/21 15:34:22;;;;;;;13.10;6.60;;;4.40;99.90;;;;;;4981681;28;20022;-81
2022/01/21 15:36:48;;;;;;;10.90;5.50;;;4.40;99.90;;;;;;4990262;28;20030;-82